• Join FlightAware (Why Join?)
  • Login
  • US Flag 
05:09AM EDT


 

Airport Tracker/Info


-or-


 

Live Flight TrackerFlight Track Log ✈ N589H ✈ 07-Apr-2014 ✈ KPIE - KPHL

Flight Track Log - Related Links

Times and Time Zones

All times are in EDT time to prevent confusion due to time zone crossing. See the N589H flight status page for this flight to view local times or setup timezone preferences in your user account.

Time Position Orientation Groundspeed Altitude Reporting Facility
EDT Latitude Longitude Course Direction KTS MPH feet Rate Location/Type
10:59AM 27.9000 -82.6833 257° West 135 155 300  Level Tampa TRACON
11:00AM 27.8833 -82.7667 257° West 199 229 2,900 1,260 Climbing Tampa TRACON
11:01AM 27.9000 -82.8333 286° West 213 245 3,600 1,260 Climbing Tampa TRACON
11:02AM 27.9167 -82.8833 291° West 232 267 5,500 1,980 Climbing Tampa TRACON
11:03AM 27.9833 -82.8833 360° North 262 302 7,600 1,560 Climbing Tampa TRACON
11:06AM 28.1500 -82.8242 17° North 266 306 11,000 960 Climbing Jacksonville Center
11:07AM 28.2356 -82.7914 19° North 291 335 11,000  Level Jacksonville Center
11:08AM 28.3253 -82.7628 16° North 315 362 11,000  Level Jacksonville Center
11:09AM 28.4147 -82.7275 19° North 331 381 11,000  Level Jacksonville Center
11:10AM 28.5025 -82.6964 17° North 331 381 11,000 600 Level Jacksonville Center
11:11AM 28.5900 -82.6703 15° North 324 373 12,200 1,560 Climbing Jacksonville Center
11:12AM 28.6756 -82.6511 11° North 312 359 14,200 1,860 Climbing Jacksonville Center
11:13AM 28.7528 -82.6486 North 299 344 16,000 1,560 Climbing Jacksonville Center
11:14AM 28.8322 -82.6436 North 286 329 17,400 1,260 Climbing Jacksonville Center
11:15AM 28.9156 -82.6411 North 291 335 18,600 1,200 Climbing Jacksonville Center
11:16AM 29.0011 -82.6361 North 291 335 19,800 1,200 Climbing Jacksonville Center
11:17AM 29.0889 -82.6311 North 296 341 21,000 1,200 Climbing Jacksonville Center
11:18AM 29.1744 -82.6261 North 301 346 22,200 1,200 Climbing Jacksonville Center
11:19AM 29.2619 -82.6211 North 307 353 23,400 1,200 Climbing Jacksonville Center
11:20AM 29.3517 -82.6161 North 307 353 24,600 1,200 Climbing Jacksonville Center
11:21AM 29.4375 -82.6111 North 307 353 25,800 1,140 Climbing Jacksonville Center
11:22AM 29.5250 -82.6086 North 307 353 26,900 900 Climbing Jacksonville Center
11:23AM 29.6128 -82.6011 North 307 353 27,600 780 Climbing Jacksonville Center
11:24AM 29.7150 -82.5961 North 317 365 28,500 780 Climbing Jacksonville Center
11:25AM 29.8069 -82.5911 North 322 371 29,200 660 Climbing Jacksonville Center
11:26AM 29.8967 -82.5858 North 327 376 29,900 660 Climbing Jacksonville Center
11:27AM 29.9906 -82.5783 North 327 376 30,600 480 Climbing Jacksonville Center
11:28AM 30.0739 -82.5494 17° North 327 376 30,900 180 Climbing Jacksonville Center
11:29AM 30.1614 -82.4867 32° Northeast 346 398 31,000  Climbing Jacksonville Center
11:30AM 30.2572 -82.4211 31° Northeast 366 421 31,000  Level Jacksonville Center
11:31AM 30.3553 -82.3581 29° Northeast 385 443 31,000  Level Jacksonville Center
11:32AM 30.4633 -82.2828 31° Northeast 404 465 31,000  Level Jacksonville Center
11:33AM 30.5528 -82.2244 29° Northeast 399 459 31,000  Level Jacksonville Center
11:34AM 30.6611 -82.1536 29° Northeast 399 459 31,000  Level Jacksonville Center
11:35AM 30.7631 -82.0875 29° Northeast 399 459 31,000  Level Jacksonville Center
11:36AM 30.8647 -82.0214 29° Northeast 399 459 31,000  Level Jacksonville Center
11:37AM 30.9647 -81.9525 31° Northeast 404 465 31,000  Level Jacksonville Center
11:38AM 31.0664 -81.8861 29° Northeast 404 465 31,000  Level Jacksonville Center
11:39AM 31.1681 -81.8219 28° Northeast 409 471 31,000  Level Jacksonville Center
11:40AM 31.2678 -81.7550 30° Northeast 414 476 31,000  Level Jacksonville Center
11:41AM 31.3569 -81.6931 31° Northeast 414 476 31,000  Level Jacksonville Center
11:42AM 31.4711 -81.6186 29° Northeast 414 476 31,000  Level Jacksonville Center
11:43AM 31.5644 -81.5564 30° Northeast 409 471 31,000  Level Jacksonville Center
11:44AM 31.6722 -81.4817 31° Northeast 409 471 31,000  Level Jacksonville Center
11:45AM 31.7739 -81.4142 29° Northeast 408 470 31,000  Level Jacksonville Center
11:46AM 31.8608 -81.3539 30° Northeast 408 470 31,000  Level Jacksonville Center
11:47AM 31.9706 -81.2786 30° Northeast 408 470 31,000  Level Jacksonville Center
11:48AM 32.0697 -81.2108 30° Northeast 408 470 31,000 600 Level Jacksonville Center
11:49AM 32.1650 -81.1453 30° Northeast 392 451 32,300 960 Climbing Jacksonville Center
11:50AM 32.2517 -81.0844 31° Northeast 358 412 33,000 300 Climbing Jacksonville Center
11:51AM 32.3303 -81.0339 29° Northeast 358 412 33,000  Level Jacksonville Center
11:52AM 32.4317 -80.9606 31° Northeast 368 423 33,000  Level Jacksonville Center
11:53AM 32.5203 -80.8994 30° Northeast 374 430 33,000  Level Jacksonville Center
11:54AM 32.6153 -80.8333 30° Northeast 374 430 33,000  Level Jacksonville Center
11:55AM 32.7083 -80.7694 30° Northeast 385 443 33,000  Level Jacksonville Center
11:56AM 32.8031 -80.7028 31° Northeast 385 443 33,000  Level Jacksonville Center
11:57AM 32.8981 -80.6386 30° Northeast 385 443 33,000  Level Jacksonville Center
11:58AM 32.9928 -80.5719 31° Northeast 385 443 33,000  Level Jacksonville Center
11:59AM 33.0878 -80.5100 29° Northeast 385 443 33,000  Level Jacksonville Center
12:00PM 33.1825 -80.4456 30° Northeast 385 443 33,000  Level Jacksonville Center
12:01PM 33.2689 -80.3833 31° Northeast 391 450 33,000  Level Jacksonville Center
12:02PM 33.3636 -80.3136 32° Northeast 391 450 33,000  Level Jacksonville Center
12:03PM 33.4603 -80.2461 30° Northeast 397 457 33,000  Level Jacksonville Center
12:04PM 33.5547 -80.1783 31° Northeast 397 457 33,000  Level Jacksonville Center
12:05PM 33.6514 -80.1106 30° Northeast 397 457 33,000  Level Jacksonville Center
12:06PM 33.7478 -80.0403 31° Northeast 397 457 33,000  Level Jacksonville Center
12:07PM 33.8464 -79.9694 31° Northeast 402 463 33,000  Level Jacksonville Center
12:08PM 33.9428 -79.9011 30° Northeast 402 463 33,000  Level Jacksonville Center
12:10PM 34.1411 -79.7569 31° Northeast 396 456 33,000  Level Washington Center
12:11PM 34.2394 -79.6864 31° Northeast 401 461 33,000  Level Washington Center
12:12PM 34.3442 -79.6164 29° Northeast 412 474 33,000  Level Washington Center
12:13PM 34.4383 -79.5428 33° Northeast 412 474 33,000  Level Washington Center
12:14PM 34.5367 -79.4719 31° Northeast 407 468 33,000  Level Washington Center
12:15PM 34.6369 -79.3986 31° Northeast 407 468 33,000  Level Washington Center
12:16PM 34.7331 -79.3272 31° Northeast 407 468 33,000  Level Washington Center
12:17PM 34.8336 -79.2533 31° Northeast 407 468 33,000  Level Washington Center
12:18PM 34.9317 -79.1817 31° Northeast 407 468 33,000  Level Washington Center
12:19PM 35.0297 -79.1100 31° Northeast 412 474 33,000  Level Washington Center
12:20PM 35.1300 -79.0358 31° Northeast 412 474 33,000  Level Washington Center
12:21PM 35.2303 -78.9611 31° Northeast 412 474 33,000  Level Washington Center
12:23PM 35.3643 -78.8454 35° Northeast  Level FlightAware Approximate
12:23PM 35.4303 -78.8142 35° Northeast 412 474 33,000  Level Washington Center
12:24PM 35.5392 -78.7292 32° Northeast 412 474 33,000  Level Washington Center
12:25PM 35.6431 -78.6592 29° Northeast 417 480 33,000  Level Washington Center
12:26PM 35.7411 -78.5811 33° Northeast 417 480 33,000  Level Washington Center
12:27PM 35.8367 -78.5078 32° Northeast 417 480 33,000  Level Washington Center
12:28PM 35.9367 -78.4319 32° Northeast 417 480 33,000  Level Washington Center
12:29PM 36.0344 -78.3558 32° Northeast 417 480 33,000  Level Washington Center
12:30PM 36.1342 -78.2822 31° Northeast 417 480 33,000  Level Washington Center
12:31PM 36.2319 -78.2056 32° Northeast 422 486 33,000  Level Washington Center
12:32PM 36.3317 -78.1289 32° Northeast 422 486 33,000  Level Washington Center
12:33PM 36.4314 -78.0522 32° Northeast 422 486 33,000  Level Washington Center
12:34PM 36.5308 -77.9753 32° Northeast 417 480 33,000  Level Washington Center
12:35PM 36.6306 -77.8981 32° Northeast 417 480 33,000  Level Washington Center
12:36PM 36.7300 -77.8181 33° Northeast 417 480 33,000  Level Washington Center
12:37PM 36.8272 -77.7431 32° Northeast 417 480 33,000  Level Washington Center
12:38PM 36.9247 -77.6653 33° Northeast 417 480 33,000  Level Washington Center
12:39PM 37.0242 -77.5872 32° Northeast 417 480 33,000 -120 Level Washington Center
12:40PM 37.1233 -77.5117 31° Northeast 417 480 32,800 -540 Descending Washington Center
12:41PM 37.2247 -77.4306 32° Northeast 422 486 32,000 -780 Descending Washington Center
12:42PM 37.3303 -77.3469 32° Northeast 427 491 31,300 -1,020 Descending Washington Center
12:43PM 37.4336 -77.2631 33° Northeast 432 497 30,000 -1,740 Descending Washington Center
12:44PM 37.5392 -77.1842 31° Northeast 437 503 27,900 -1,560 Descending Washington Center
12:45PM 37.6425 -77.0972 34° Northeast 437 503 27,000 -480 Descending Washington Center
12:46PM 37.7308 -77.0253 33° Northeast 432 497 27,000  Level Washington Center
12:47PM 37.8319 -76.9458 32° Northeast 432 497 27,000  Level Washington Center
12:48PM 37.9308 -76.8658 33° Northeast 432 497 27,000 -480 Level Washington Center
12:49PM 38.0317 -76.7833 33° Northeast 427 491 26,100 -1,320 Descending Washington Center
12:50PM 38.1431 -76.6900 33° Northeast 427 491 24,400 -6,480 Descending Washington Center
12:51PM 38.2378 -76.6122 33° Northeast 421 484 13,000 -5,760 Descending Washington Center
12:52PM 38.3236 -76.5497 30° Northeast 408 470 13,000  Level Washington Center
12:53PM 38.4075 -76.4819 32° Northeast 379 436 13,000  Level Washington Center
12:54PM 38.4894 -76.4114 34° Northeast 359 413 13,000  Level Washington Center
12:55PM 38.5753 -76.3433 32° Northeast 359 413 13,000  Level Washington Center
12:56PM 38.6550 -76.2775 33° Northeast 349 402 13,000  Level Washington Center
12:57PM 38.7303 -76.2144 33° Northeast 338 389 13,000  Level Washington Center
12:58PM 38.8142 -76.1406 34° Northeast 338 389 13,000  Level Washington Center
12:59PM 38.8914 -76.0769 33° Northeast 343 395 13,000  Level Washington Center
01:00PM 38.9708 -76.0108 33° Northeast 343 395 13,000  Level Washington Center
01:02PM 39.1236 -75.8806 33° Northeast 333 383 13,000  Level Washington Center
01:03PM 39.1986 -75.8167 33° Northeast 328 377 13,000 -1,680 Level Washington Center
01:04PM 39.3000 -75.7167 37° Northeast 280 322 8,800 -1,860 Descending Potomac TRACON
01:05PM 39.4000 -75.7000 North 291 335 8,100 -900 Descending Potomac TRACON
01:06PM 39.4667 -75.6667 21° North 296 341 7,100 -780 Descending Potomac TRACON
01:07PM 39.5333 -75.6500 11° North 248 285 6,700 -600 Descending Potomac TRACON
01:08PM 39.6000 -75.6333 11° North 248 285 5,900 -480 Descending Potomac TRACON
01:09PM 39.6500 -75.6167 14° North 226 260 5,800 -720 Descending Potomac TRACON
01:10PM 39.7167 -75.5833 21° North 213 245 4,500 -960 Descending Potomac TRACON
01:11PM 39.7667 -75.5667 14° North 199 229 3,900 -840 Descending Potomac TRACON
01:12PM 39.8000 -75.5167 49° Northeast 202 232 3,000 -540 Descending Potomac TRACON
01:13PM 39.8333 -75.4667 49° Northeast 156 180 2,900 -420 Descending Potomac TRACON
01:14PM 39.8333 -75.4167 90° East 130 150 2,200 -720 Descending Potomac TRACON
01:15PM 39.8333 -75.3667 90° East 122 140 1,500 -720 Descending Potomac TRACON
01:16PM 39.8500 -75.3333 57° Northeast 122 140 900 -720 Descending Potomac TRACON
01:18PM 39.8667 -75.2333 66° East  Level FlightAware Approximate
01:25PM 39.8722 -75.2409 66° East  Level Estimated
01:26PM 39.8722 -75.2409 66° East  Level Estimated
01:27PM 39.8722 -75.2409 66° East  Level Estimated